sensor_id;sensor_type;location;lat;lon;timestamp;P1;durP1;ratioP1;P2;durP2;ratioP2
11078;SDS011;5592;49.234;7.268;2023-02-05T00:01:39;28.43;;;13.50;;
11078;SDS011;5592;49.234;7.268;2023-02-05T00:04:05;32.73;;;13.00;;
11078;SDS011;5592;49.234;7.268;2023-02-05T00:06:31;24.70;;;12.17;;
11078;SDS011;5592;49.234;7.268;2023-02-05T00:08:56;25.20;;;11.77;;
11078;SDS011;5592;49.234;7.268;2023-02-05T00:11:22;19.93;;;12.43;;
11078;SDS011;5592;49.234;7.268;2023-02-05T00:13:48;32.80;;;13.80;;
11078;SDS011;5592;49.234;7.268;2023-02-05T00:16:15;31.40;;;13.67;;
11078;SDS011;5592;49.234;7.268;2023-02-05T00:18:42;25.60;;;12.87;;
11078;SDS011;5592;49.234;7.268;2023-02-05T00:21:08;25.63;;;13.80;;
11078;SDS011;5592;49.234;7.268;2023-02-05T00:23:34;28.73;;;13.40;;
11078;SDS011;5592;49.234;7.268;2023-02-05T00:26:00;29.53;;;12.67;;
11078;SDS011;5592;49.234;7.268;2023-02-05T00:28:27;24.50;;;12.60;;
11078;SDS011;5592;49.234;7.268;2023-02-05T00:30:54;21.13;;;12.10;;
11078;SDS011;5592;49.234;7.268;2023-02-05T00:33:20;26.47;;;13.30;;
11078;SDS011;5592;49.234;7.268;2023-02-05T00:35:46;25.43;;;12.97;;
11078;SDS011;5592;49.234;7.268;2023-02-05T00:38:11;26.90;;;14.33;;
11078;SDS011;5592;49.234;7.268;2023-02-05T00:40:37;25.53;;;11.97;;
11078;SDS011;5592;49.234;7.268;2023-02-05T00:43:02;25.83;;;13.27;;
11078;SDS011;5592;49.234;7.268;2023-02-05T00:45:28;21.77;;;13.00;;
11078;SDS011;5592;49.234;7.268;2023-02-05T00:48:02;26.53;;;12.87;;
11078;SDS011;5592;49.234;7.268;2023-02-05T00:50:29;30.23;;;13.53;;
11078;SDS011;5592;49.234;7.268;2023-02-05T00:52:55;26.10;;;12.37;;
11078;SDS011;5592;49.234;7.268;2023-02-05T00:55:20;23.33;;;12.20;;
11078;SDS011;5592;49.234;7.268;2023-02-05T00:57:46;28.40;;;12.33;;
11078;SDS011;5592;49.234;7.268;2023-02-05T01:00:12;21.67;;;13.50;;
11078;SDS011;5592;49.234;7.268;2023-02-05T01:02:38;32.13;;;13.07;;
11078;SDS011;5592;49.234;7.268;2023-02-05T01:05:04;26.03;;;13.10;;
11078;SDS011;5592;49.234;7.268;2023-02-05T01:07:30;22.13;;;12.90;;
11078;SDS011;5592;49.234;7.268;2023-02-05T01:09:56;24.93;;;12.10;;
11078;SDS011;5592;49.234;7.268;2023-02-05T01:12:21;18.33;;;12.07;;
11078;SDS011;5592;49.234;7.268;2023-02-05T01:14:47;24.50;;;13.50;;
11078;SDS011;5592;49.234;7.268;2023-02-05T01:17:13;26.03;;;12.67;;
11078;SDS011;5592;49.234;7.268;2023-02-05T01:19:38;24.37;;;13.00;;
11078;SDS011;5592;49.234;7.268;2023-02-05T01:22:04;19.67;;;12.50;;
11078;SDS011;5592;49.234;7.268;2023-02-05T01:24:30;19.30;;;11.60;;
11078;SDS011;5592;49.234;7.268;2023-02-05T01:26:56;23.90;;;12.73;;
11078;SDS011;5592;49.234;7.268;2023-02-05T01:29:23;24.70;;;14.00;;
11078;SDS011;5592;49.234;7.268;2023-02-05T01:31:49;28.00;;;12.20;;
11078;SDS011;5592;49.234;7.268;2023-02-05T01:34:15;21.87;;;11.67;;
11078;SDS011;5592;49.234;7.268;2023-02-05T01:36:41;21.87;;;12.30;;
11078;SDS011;5592;49.234;7.268;2023-02-05T01:39:07;28.60;;;13.60;;
11078;SDS011;5592;49.234;7.268;2023-02-05T01:41:33;30.33;;;12.93;;
11078;SDS011;5592;49.234;7.268;2023-02-05T01:44:10;23.03;;;12.10;;
11078;SDS011;5592;49.234;7.268;2023-02-05T01:46:37;21.37;;;11.90;;
11078;SDS011;5592;49.234;7.268;2023-02-05T01:49:04;24.47;;;12.50;;
11078;SDS011;5592;49.234;7.268;2023-02-05T01:51:32;25.40;;;12.30;;
11078;SDS011;5592;49.234;7.268;2023-02-05T01:54:01;23.80;;;12.10;;
11078;SDS011;5592;49.234;7.268;2023-02-05T01:56:33;24.73;;;11.97;;
11078;SDS011;5592;49.234;7.268;2023-02-05T01:59:13;29.53;;;12.87;;
11078;SDS011;5592;49.234;7.268;2023-02-05T02:01:42;23.47;;;12.03;;
11078;SDS011;5592;49.234;7.268;2023-02-05T02:04:08;22.43;;;12.10;;
11078;SDS011;5592;49.234;7.268;2023-02-05T02:06:36;25.43;;;11.70;;
11078;SDS011;5592;49.234;7.268;2023-02-05T02:09:02;21.57;;;10.87;;
11078;SDS011;5592;49.234;7.268;2023-02-05T02:11:32;26.17;;;11.60;;
11078;SDS011;5592;49.234;7.268;2023-02-05T02:14:01;26.83;;;10.63;;
11078;SDS011;5592;49.234;7.268;2023-02-05T02:16:30;25.07;;;10.83;;
11078;SDS011;5592;49.234;7.268;2023-02-05T02:18:59;23.70;;;11.17;;
11078;SDS011;5592;49.234;7.268;2023-02-05T02:24:05;24.10;;;10.80;;
11078;SDS011;5592;49.234;7.268;2023-02-05T02:32:08;20.23;;;10.53;;
11078;SDS011;5592;49.234;7.268;2023-02-05T02:34:44;18.37;;;11.70;;
11078;SDS011;5592;49.234;7.268;2023-02-05T02:37:17;24.70;;;12.17;;
11078;SDS011;5592;49.234;7.268;2023-02-05T02:39:54;19.97;;;11.80;;
11078;SDS011;5592;49.234;7.268;2023-02-05T02:42:41;28.63;;;11.73;;
11078;SDS011;5592;49.234;7.268;2023-02-05T02:45:13;22.33;;;11.27;;
11078;SDS011;5592;49.234;7.268;2023-02-05T02:47:45;22.43;;;11.83;;
11078;SDS011;5592;49.234;7.268;2023-02-05T02:50:32;23.20;;;12.00;;
11078;SDS011;5592;49.234;7.268;2023-02-05T02:53:01;23.40;;;11.80;;
11078;SDS011;5592;49.234;7.268;2023-02-05T02:55:39;25.40;;;11.40;;
11078;SDS011;5592;49.234;7.268;2023-02-05T02:58:08;20.43;;;11.57;;
11078;SDS011;5592;49.234;7.268;2023-02-05T03:00:37;21.50;;;10.73;;
11078;SDS011;5592;49.234;7.268;2023-02-05T03:03:05;22.80;;;11.80;;
11078;SDS011;5592;49.234;7.268;2023-02-05T03:05:33;24.17;;;13.47;;
11078;SDS011;5592;49.234;7.268;2023-02-05T03:08:02;29.67;;;12.53;;
11078;SDS011;5592;49.234;7.268;2023-02-05T03:10:32;25.50;;;12.33;;
11078;SDS011;5592;49.234;7.268;2023-02-05T03:13:05;29.57;;;13.10;;
11078;SDS011;5592;49.234;7.268;2023-02-05T03:15:31;28.53;;;13.23;;
11078;SDS011;5592;49.234;7.268;2023-02-05T03:17:57;25.03;;;12.53;;
11078;SDS011;5592;49.234;7.268;2023-02-05T03:20:25;21.23;;;12.73;;
11078;SDS011;5592;49.234;7.268;2023-02-05T03:22:53;23.00;;;12.90;;
11078;SDS011;5592;49.234;7.268;2023-02-05T03:25:20;28.00;;;12.77;;
11078;SDS011;5592;49.234;7.268;2023-02-05T03:27:47;25.10;;;11.60;;
11078;SDS011;5592;49.234;7.268;2023-02-05T03:30:17;37.57;;;12.07;;
11078;SDS011;5592;49.234;7.268;2023-02-05T03:32:50;26.60;;;11.03;;
11078;SDS011;5592;49.234;7.268;2023-02-05T03:35:59;23.20;;;11.90;;
11078;SDS011;5592;49.234;7.268;2023-02-05T03:38:28;24.83;;;12.43;;
11078;SDS011;5592;49.234;7.268;2023-02-05T03:44:16;20.63;;;11.03;;
11078;SDS011;5592;49.234;7.268;2023-02-05T03:47:01;30.40;;;13.17;;
11078;SDS011;5592;49.234;7.268;2023-02-05T03:49:52;32.43;;;12.10;;
11078;SDS011;5592;49.234;7.268;2023-02-05T03:52:34;20.10;;;12.13;;
11078;SDS011;5592;49.234;7.268;2023-02-05T03:55:10;24.53;;;12.37;;
11078;SDS011;5592;49.234;7.268;2023-02-05T04:00:05;20.23;;;11.53;;
11078;SDS011;5592;49.234;7.268;2023-02-05T04:02:31;28.53;;;12.50;;
11078;SDS011;5592;49.234;7.268;2023-02-05T04:04:58;32.73;;;12.23;;
11078;SDS011;5592;49.234;7.268;2023-02-05T04:07:24;28.07;;;12.13;;
11078;SDS011;5592;49.234;7.268;2023-02-05T04:09:50;22.23;;;11.83;;
11078;SDS011;5592;49.234;7.268;2023-02-05T04:12:15;25.17;;;11.87;;
11078;SDS011;5592;49.234;7.268;2023-02-05T04:14:41;25.23;;;12.47;;
11078;SDS011;5592;49.234;7.268;2023-02-05T04:17:08;24.13;;;12.57;;
11078;SDS011;5592;49.234;7.268;2023-02-05T04:19:35;25.30;;;11.63;;
11078;SDS011;5592;49.234;7.268;2023-02-05T04:22:01;23.37;;;12.17;;
11078;SDS011;5592;49.234;7.268;2023-02-05T04:24:26;24.40;;;11.77;;
11078;SDS011;5592;49.234;7.268;2023-02-05T04:26:52;31.63;;;11.87;;
11078;SDS011;5592;49.234;7.268;2023-02-05T04:29:17;26.37;;;10.80;;
11078;SDS011;5592;49.234;7.268;2023-02-05T04:31:43;23.30;;;11.77;;
11078;SDS011;5592;49.234;7.268;2023-02-05T04:34:08;24.80;;;11.23;;
11078;SDS011;5592;49.234;7.268;2023-02-05T04:36:34;20.23;;;10.90;;
11078;SDS011;5592;49.234;7.268;2023-02-05T04:39:00;24.77;;;11.47;;
11078;SDS011;5592;49.234;7.268;2023-02-05T04:41:28;25.17;;;12.30;;
11078;SDS011;5592;49.234;7.268;2023-02-05T04:43:54;20.80;;;10.73;;
11078;SDS011;5592;49.234;7.268;2023-02-05T04:46:19;19.20;;;10.90;;
11078;SDS011;5592;49.234;7.268;2023-02-05T04:48:45;24.63;;;11.03;;
11078;SDS011;5592;49.234;7.268;2023-02-05T04:51:12;29.03;;;12.00;;
11078;SDS011;5592;49.234;7.268;2023-02-05T04:53:38;24.27;;;11.87;;
11078;SDS011;5592;49.234;7.268;2023-02-05T04:56:05;25.93;;;11.87;;
11078;SDS011;5592;49.234;7.268;2023-02-05T04:58:31;26.23;;;11.10;;
11078;SDS011;5592;49.234;7.268;2023-02-05T05:00:57;26.77;;;11.60;;
11078;SDS011;5592;49.234;7.268;2023-02-05T05:03:23;20.00;;;11.63;;
11078;SDS011;5592;49.234;7.268;2023-02-05T05:05:48;25.17;;;11.93;;
11078;SDS011;5592;49.234;7.268;2023-02-05T05:08:14;22.40;;;11.83;;
11078;SDS011;5592;49.234;7.268;2023-02-05T05:10:39;29.17;;;13.00;;
11078;SDS011;5592;49.234;7.268;2023-02-05T05:13:05;24.77;;;12.87;;
11078;SDS011;5592;49.234;7.268;2023-02-05T05:15:30;22.37;;;11.73;;
11078;SDS011;5592;49.234;7.268;2023-02-05T05:17:56;18.23;;;11.33;;
11078;SDS011;5592;49.234;7.268;2023-02-05T05:20:22;22.73;;;10.87;;
11078;SDS011;5592;49.234;7.268;2023-02-05T05:22:47;22.63;;;11.37;;
11078;SDS011;5592;49.234;7.268;2023-02-05T05:25:13;28.37;;;12.60;;
11078;SDS011;5592;49.234;7.268;2023-02-05T05:27:38;28.10;;;12.43;;
11078;SDS011;5592;49.234;7.268;2023-02-05T05:30:04;22.23;;;11.37;;
11078;SDS011;5592;49.234;7.268;2023-02-05T05:32:30;22.13;;;11.50;;
11078;SDS011;5592;49.234;7.268;2023-02-05T05:34:56;21.60;;;11.10;;
11078;SDS011;5592;49.234;7.268;2023-02-05T05:37:22;26.83;;;11.57;;
11078;SDS011;5592;49.234;7.268;2023-02-05T05:39:47;22.70;;;11.10;;
11078;SDS011;5592;49.234;7.268;2023-02-05T05:42:32;20.00;;;11.07;;
11078;SDS011;5592;49.234;7.268;2023-02-05T05:45:16;29.27;;;12.00;;
11078;SDS011;5592;49.234;7.268;2023-02-05T05:47:42;19.10;;;11.00;;
11078;SDS011;5592;49.234;7.268;2023-02-05T05:50:07;17.90;;;10.73;;
11078;SDS011;5592;49.234;7.268;2023-02-05T05:52:33;19.43;;;11.63;;
11078;SDS011;5592;49.234;7.268;2023-02-05T05:54:58;21.43;;;11.40;;
11078;SDS011;5592;49.234;7.268;2023-02-05T05:57:24;28.47;;;11.57;;
11078;SDS011;5592;49.234;7.268;2023-02-05T05:59:50;24.93;;;12.30;;
11078;SDS011;5592;49.234;7.268;2023-02-05T06:02:15;25.00;;;10.97;;
11078;SDS011;5592;49.234;7.268;2023-02-05T06:04:41;20.47;;;11.00;;
11078;SDS011;5592;49.234;7.268;2023-02-05T06:07:07;22.00;;;11.90;;
11078;SDS011;5592;49.234;7.268;2023-02-05T06:09:32;20.23;;;10.73;;
11078;SDS011;5592;49.234;7.268;2023-02-05T06:11:58;28.37;;;12.27;;
11078;SDS011;5592;49.234;7.268;2023-02-05T06:14:23;36.30;;;11.77;;
11078;SDS011;5592;49.234;7.268;2023-02-05T06:16:49;16.23;;;9.43;;
11078;SDS011;5592;49.234;7.268;2023-02-05T06:19:16;23.07;;;12.17;;
11078;SDS011;5592;49.234;7.268;2023-02-05T06:21:42;21.23;;;11.27;;
11078;SDS011;5592;49.234;7.268;2023-02-05T06:24:07;26.40;;;12.27;;
11078;SDS011;5592;49.234;7.268;2023-02-05T06:26:33;25.83;;;12.80;;
11078;SDS011;5592;49.234;7.268;2023-02-05T06:28:59;23.17;;;13.80;;
11078;SDS011;5592;49.234;7.268;2023-02-05T06:31:27;26.63;;;12.10;;
11078;SDS011;5592;49.234;7.268;2023-02-05T06:33:54;29.53;;;14.77;;
11078;SDS011;5592;49.234;7.268;2023-02-05T06:36:19;22.23;;;11.57;;
11078;SDS011;5592;49.234;7.268;2023-02-05T06:38:45;30.57;;;12.87;;
11078;SDS011;5592;49.234;7.268;2023-02-05T06:41:10;25.80;;;12.90;;
11078;SDS011;5592;49.234;7.268;2023-02-05T06:43:36;26.40;;;11.93;;
11078;SDS011;5592;49.234;7.268;2023-02-05T06:46:02;26.50;;;12.50;;
11078;SDS011;5592;49.234;7.268;2023-02-05T06:48:27;24.73;;;12.27;;
11078;SDS011;5592;49.234;7.268;2023-02-05T06:50:53;29.47;;;13.00;;
11078;SDS011;5592;49.234;7.268;2023-02-05T06:53:19;27.07;;;12.17;;
11078;SDS011;5592;49.234;7.268;2023-02-05T06:55:44;31.43;;;13.30;;
11078;SDS011;5592;49.234;7.268;2023-02-05T06:58:10;27.43;;;12.50;;
11078;SDS011;5592;49.234;7.268;2023-02-05T07:00:35;30.33;;;13.77;;
11078;SDS011;5592;49.234;7.268;2023-02-05T07:03:01;24.70;;;13.20;;
11078;SDS011;5592;49.234;7.268;2023-02-05T07:05:27;35.17;;;14.20;;
11078;SDS011;5592;49.234;7.268;2023-02-05T07:07:53;25.90;;;13.63;;
11078;SDS011;5592;49.234;7.268;2023-02-05T07:10:19;27.30;;;13.03;;
11078;SDS011;5592;49.234;7.268;2023-02-05T07:12:44;28.53;;;12.53;;
11078;SDS011;5592;49.234;7.268;2023-02-05T07:15:10;20.83;;;11.87;;
11078;SDS011;5592;49.234;7.268;2023-02-05T07:17:35;24.90;;;13.13;;
11078;SDS011;5592;49.234;7.268;2023-02-05T07:20:02;19.63;;;11.50;;
11078;SDS011;5592;49.234;7.268;2023-02-05T07:22:28;27.80;;;13.67;;
11078;SDS011;5592;49.234;7.268;2023-02-05T07:24:54;30.07;;;12.57;;
11078;SDS011;5592;49.234;7.268;2023-02-05T07:27:21;34.93;;;12.33;;
11078;SDS011;5592;49.234;7.268;2023-02-05T07:29:47;26.10;;;11.93;;
11078;SDS011;5592;49.234;7.268;2023-02-05T07:32:13;26.70;;;10.90;;
11078;SDS011;5592;49.234;7.268;2023-02-05T07:34:38;29.37;;;13.10;;
11078;SDS011;5592;49.234;7.268;2023-02-05T07:37:04;24.50;;;12.27;;
11078;SDS011;5592;49.234;7.268;2023-02-05T07:39:30;25.03;;;11.53;;
11078;SDS011;5592;49.234;7.268;2023-02-05T07:41:57;25.93;;;13.27;;
11078;SDS011;5592;49.234;7.268;2023-02-05T07:44:23;22.57;;;12.30;;
11078;SDS011;5592;49.234;7.268;2023-02-05T07:46:49;22.30;;;11.80;;
11078;SDS011;5592;49.234;7.268;2023-02-05T07:49:15;26.17;;;12.50;;
11078;SDS011;5592;49.234;7.268;2023-02-05T07:51:40;27.80;;;13.43;;
11078;SDS011;5592;49.234;7.268;2023-02-05T07:54:06;21.50;;;10.37;;
11078;SDS011;5592;49.234;7.268;2023-02-05T07:56:33;31.13;;;13.10;;
11078;SDS011;5592;49.234;7.268;2023-02-05T07:58:58;17.40;;;10.43;;
11078;SDS011;5592;49.234;7.268;2023-02-05T08:01:24;22.07;;;11.97;;
11078;SDS011;5592;49.234;7.268;2023-02-05T08:03:53;24.90;;;12.90;;
11078;SDS011;5592;49.234;7.268;2023-02-05T08:06:18;32.57;;;13.13;;
11078;SDS011;5592;49.234;7.268;2023-02-05T08:08:44;25.70;;;13.37;;
11078;SDS011;5592;49.234;7.268;2023-02-05T08:11:12;20.03;;;12.77;;
11078;SDS011;5592;49.234;7.268;2023-02-05T08:13:42;26.23;;;12.80;;
11078;SDS011;5592;49.234;7.268;2023-02-05T08:16:08;23.90;;;12.40;;
11078;SDS011;5592;49.234;7.268;2023-02-05T08:18:35;20.73;;;12.47;;
11078;SDS011;5592;49.234;7.268;2023-02-05T08:21:00;20.80;;;11.10;;
11078;SDS011;5592;49.234;7.268;2023-02-05T08:23:26;27.07;;;12.10;;
11078;SDS011;5592;49.234;7.268;2023-02-05T08:25:52;26.13;;;13.37;;
11078;SDS011;5592;49.234;7.268;2023-02-05T08:28:19;21.03;;;12.27;;
11078;SDS011;5592;49.234;7.268;2023-02-05T08:30:45;22.20;;;12.43;;
11078;SDS011;5592;49.234;7.268;2023-02-05T08:33:11;21.63;;;12.70;;
11078;SDS011;5592;49.234;7.268;2023-02-05T08:35:36;29.00;;;13.07;;
11078;SDS011;5592;49.234;7.268;2023-02-05T08:38:02;25.40;;;14.00;;
11078;SDS011;5592;49.234;7.268;2023-02-05T08:40:28;29.00;;;14.40;;
11078;SDS011;5592;49.234;7.268;2023-02-05T08:42:53;35.30;;;15.07;;
11078;SDS011;5592;49.234;7.268;2023-02-05T08:45:22;25.87;;;13.20;;
11078;SDS011;5592;49.234;7.268;2023-02-05T08:47:48;21.60;;;11.30;;
11078;SDS011;5592;49.234;7.268;2023-02-05T08:50:15;33.10;;;13.57;;
11078;SDS011;5592;49.234;7.268;2023-02-05T08:52:40;20.60;;;11.30;;
11078;SDS011;5592;49.234;7.268;2023-02-05T08:55:06;37.63;;;12.77;;
11078;SDS011;5592;49.234;7.268;2023-02-05T08:57:32;26.07;;;13.47;;
11078;SDS011;5592;49.234;7.268;2023-02-05T08:59:58;28.23;;;14.23;;
11078;SDS011;5592;49.234;7.268;2023-02-05T09:02:24;32.20;;;15.97;;
11078;SDS011;5592;49.234;7.268;2023-02-05T09:04:49;31.40;;;14.40;;
11078;SDS011;5592;49.234;7.268;2023-02-05T09:07:15;27.07;;;14.40;;
11078;SDS011;5592;49.234;7.268;2023-02-05T09:09:41;26.33;;;13.87;;
11078;SDS011;5592;49.234;7.268;2023-02-05T09:12:07;25.73;;;12.90;;
11078;SDS011;5592;49.234;7.268;2023-02-05T09:14:34;29.50;;;14.30;;
11078;SDS011;5592;49.234;7.268;2023-02-05T09:17:04;28.20;;;13.53;;
11078;SDS011;5592;49.234;7.268;2023-02-05T09:19:38;31.07;;;13.80;;
11078;SDS011;5592;49.234;7.268;2023-02-05T09:22:04;25.10;;;14.23;;
11078;SDS011;5592;49.234;7.268;2023-02-05T09:24:31;40.90;;;15.90;;
11078;SDS011;5592;49.234;7.268;2023-02-05T09:26:57;29.40;;;13.83;;
11078;SDS011;5592;49.234;7.268;2023-02-05T09:29:23;31.97;;;17.00;;
11078;SDS011;5592;49.234;7.268;2023-02-05T09:31:49;22.90;;;12.57;;
11078;SDS011;5592;49.234;7.268;2023-02-05T09:34:14;23.97;;;14.00;;
11078;SDS011;5592;49.234;7.268;2023-02-05T09:36:40;27.13;;;14.63;;
11078;SDS011;5592;49.234;7.268;2023-02-05T09:39:07;26.77;;;16.20;;
11078;SDS011;5592;49.234;7.268;2023-02-05T09:41:35;31.37;;;15.97;;
11078;SDS011;5592;49.234;7.268;2023-02-05T09:46:52;27.80;;;15.47;;
11078;SDS011;5592;49.234;7.268;2023-02-05T09:49:47;28.90;;;15.40;;
11078;SDS011;5592;49.234;7.268;2023-02-05T09:52:36;29.73;;;15.20;;
11078;SDS011;5592;49.234;7.268;2023-02-05T09:57:43;29.13;;;14.23;;
11078;SDS011;5592;49.234;7.268;2023-02-05T10:00:17;22.70;;;14.90;;
11078;SDS011;5592;49.234;7.268;2023-02-05T10:05:31;30.93;;;13.40;;
11078;SDS011;5592;49.234;7.268;2023-02-05T10:08:17;24.47;;;14.23;;
11078;SDS011;5592;49.234;7.268;2023-02-05T10:10:56;26.10;;;13.97;;
11078;SDS011;5592;49.234;7.268;2023-02-05T10:27:34;22.53;;;13.60;;
11078;SDS011;5592;49.234;7.268;2023-02-05T10:30:06;21.20;;;12.60;;
11078;SDS011;5592;49.234;7.268;2023-02-05T10:32:53;24.60;;;13.10;;
11078;SDS011;5592;49.234;7.268;2023-02-05T10:35:56;20.80;;;13.70;;
11078;SDS011;5592;49.234;7.268;2023-02-05T10:38:26;22.43;;;14.10;;
11078;SDS011;5592;49.234;7.268;2023-02-05T10:40:56;22.80;;;12.90;;
11078;SDS011;5592;49.234;7.268;2023-02-05T10:45:54;23.43;;;13.70;;
11078;SDS011;5592;49.234;7.268;2023-02-05T10:51:01;21.60;;;13.90;;
11078;SDS011;5592;49.234;7.268;2023-02-05T10:53:34;18.60;;;11.40;;
11078;SDS011;5592;49.234;7.268;2023-02-05T10:56:01;19.87;;;13.00;;
11078;SDS011;5592;49.234;7.268;2023-02-05T11:01:06;17.57;;;12.33;;
11078;SDS011;5592;49.234;7.268;2023-02-05T11:03:36;18.03;;;13.03;;
11078;SDS011;5592;49.234;7.268;2023-02-05T11:06:06;21.00;;;12.10;;
11078;SDS011;5592;49.234;7.268;2023-02-05T11:08:41;16.73;;;11.03;;
11078;SDS011;5592;49.234;7.268;2023-02-05T11:11:17;17.30;;;11.43;;
11078;SDS011;5592;49.234;7.268;2023-02-05T11:13:58;17.53;;;11.07;;
11078;SDS011;5592;49.234;7.268;2023-02-05T11:16:44;20.40;;;11.97;;
11078;SDS011;5592;49.234;7.268;2023-02-05T11:19:23;18.60;;;11.83;;
11078;SDS011;5592;49.234;7.268;2023-02-05T11:24:37;15.40;;;11.13;;
11078;SDS011;5592;49.234;7.268;2023-02-05T11:29:58;21.20;;;12.03;;
11078;SDS011;5592;49.234;7.268;2023-02-05T11:32:42;17.23;;;12.03;;
11078;SDS011;5592;49.234;7.268;2023-02-05T11:35:22;16.43;;;11.43;;
11078;SDS011;5592;49.234;7.268;2023-02-05T11:40:30;17.50;;;11.37;;
11078;SDS011;5592;49.234;7.268;2023-02-05T11:43:04;14.33;;;10.37;;
11078;SDS011;5592;49.234;7.268;2023-02-05T11:45:31;19.83;;;12.37;;
11078;SDS011;5592;49.234;7.268;2023-02-05T11:48:02;15.33;;;9.63;;
11078;SDS011;5592;49.234;7.268;2023-02-05T11:50:31;18.10;;;10.17;;
11078;SDS011;5592;49.234;7.268;2023-02-05T11:53:08;16.43;;;9.77;;
11078;SDS011;5592;49.234;7.268;2023-02-05T11:55:43;15.77;;;10.17;;
11078;SDS011;5592;49.234;7.268;2023-02-05T11:58:23;17.57;;;10.10;;
11078;SDS011;5592;49.234;7.268;2023-02-05T12:00:52;17.90;;;9.83;;
11078;SDS011;5592;49.234;7.268;2023-02-05T12:03:21;15.90;;;10.07;;
11078;SDS011;5592;49.234;7.268;2023-02-05T12:05:56;13.03;;;9.07;;
11078;SDS011;5592;49.234;7.268;2023-02-05T12:08:40;12.47;;;8.63;;
11078;SDS011;5592;49.234;7.268;2023-02-05T12:22:26;11.53;;;8.10;;
11078;SDS011;5592;49.234;7.268;2023-02-05T12:28:17;8.20;;;6.27;;
11078;SDS011;5592;49.234;7.268;2023-02-05T12:39:19;8.63;;;4.43;;
11078;SDS011;5592;49.234;7.268;2023-02-05T12:41:50;5.33;;;3.27;;
11078;SDS011;5592;49.234;7.268;2023-02-05T12:47:22;3.07;;;2.10;;
11078;SDS011;5592;49.234;7.268;2023-02-05T12:53:20;2.00;;;1.23;;
11078;SDS011;5592;49.234;7.268;2023-02-05T12:58:36;1.43;;;0.90;;
11078;SDS011;5592;49.234;7.268;2023-02-05T13:01:10;0.80;;;0.80;;
11078;SDS011;5592;49.234;7.268;2023-02-05T13:03:42;0.93;;;0.80;;
11078;SDS011;5592;49.234;7.268;2023-02-05T13:06:17;1.47;;;0.73;;
11078;SDS011;5592;49.234;7.268;2023-02-05T13:11:54;1.73;;;0.70;;
11078;SDS011;5592;49.234;7.268;2023-02-05T13:14:24;0.70;;;0.70;;
11078;SDS011;5592;49.234;7.268;2023-02-05T13:16:55;1.07;;;0.80;;
11078;SDS011;5592;49.234;7.268;2023-02-05T13:19:36;0.70;;;0.70;;
11078;SDS011;5592;49.234;7.268;2023-02-05T13:22:34;1.03;;;0.90;;
11078;SDS011;5592;49.234;7.268;2023-02-05T13:25:43;1.03;;;0.93;;
11078;SDS011;5592;49.234;7.268;2023-02-05T13:28:41;0.80;;;0.70;;
11078;SDS011;5592;49.234;7.268;2023-02-05T13:31:23;1.20;;;1.03;;
11078;SDS011;5592;49.234;7.268;2023-02-05T13:34:03;0.90;;;0.70;;
11078;SDS011;5592;49.234;7.268;2023-02-05T13:39:38;0.87;;;0.60;;
11078;SDS011;5592;49.234;7.268;2023-02-05T13:43:11;0.60;;;0.60;;
11078;SDS011;5592;49.234;7.268;2023-02-05T13:51:20;0.60;;;0.50;;
11078;SDS011;5592;49.234;7.268;2023-02-05T13:59:40;0.73;;;0.60;;
11078;SDS011;5592;49.234;7.268;2023-02-05T14:05:01;0.57;;;0.57;;
11078;SDS011;5592;49.234;7.268;2023-02-05T14:07:36;0.80;;;0.70;;
11078;SDS011;5592;49.234;7.268;2023-02-05T14:10:22;0.70;;;0.50;;
11078;SDS011;5592;49.234;7.268;2023-02-05T14:12:56;0.77;;;0.60;;
11078;SDS011;5592;49.234;7.268;2023-02-05T14:15:50;0.90;;;0.60;;
11078;SDS011;5592;49.234;7.268;2023-02-05T14:32:09;0.90;;;0.70;;
11078;SDS011;5592;49.234;7.268;2023-02-05T14:37:01;0.80;;;0.70;;
11078;SDS011;5592;49.234;7.268;2023-02-05T14:39:28;1.33;;;0.90;;
11078;SDS011;5592;49.234;7.268;2023-02-05T14:42:01;2.33;;;0.80;;
11078;SDS011;5592;49.234;7.268;2023-02-05T14:44:36;0.80;;;0.80;;
11078;SDS011;5592;49.234;7.268;2023-02-05T14:47:24;0.90;;;0.80;;
11078;SDS011;5592;49.234;7.268;2023-02-05T14:50:06;0.80;;;0.73;;
11078;SDS011;5592;49.234;7.268;2023-02-05T14:52:35;1.30;;;0.97;;
11078;SDS011;5592;49.234;7.268;2023-02-05T14:55:06;1.73;;;0.80;;
11078;SDS011;5592;49.234;7.268;2023-02-05T15:00:06;1.33;;;0.70;;
11078;SDS011;5592;49.234;7.268;2023-02-05T15:08:24;0.70;;;0.70;;
11078;SDS011;5592;49.234;7.268;2023-02-05T15:11:13;1.77;;;0.77;;
11078;SDS011;5592;49.234;7.268;2023-02-05T15:14:23;0.80;;;0.67;;
11078;SDS011;5592;49.234;7.268;2023-02-05T15:19:29;1.10;;;0.70;;
11078;SDS011;5592;49.234;7.268;2023-02-05T15:25:00;1.33;;;0.70;;
11078;SDS011;5592;49.234;7.268;2023-02-05T15:27:41;1.07;;;0.70;;
11078;SDS011;5592;49.234;7.268;2023-02-05T15:30:16;0.97;;;0.80;;
11078;SDS011;5592;49.234;7.268;2023-02-05T15:32:48;0.70;;;0.70;;
11078;SDS011;5592;49.234;7.268;2023-02-05T15:35:22;0.60;;;0.60;;
11078;SDS011;5592;49.234;7.268;2023-02-05T15:37:54;0.67;;;0.67;;
11078;SDS011;5592;49.234;7.268;2023-02-05T15:40:25;0.87;;;0.77;;
11078;SDS011;5592;49.234;7.268;2023-02-05T15:42:56;1.03;;;0.80;;
11078;SDS011;5592;49.234;7.268;2023-02-05T15:45:34;3.57;;;0.90;;
11078;SDS011;5592;49.234;7.268;2023-02-05T15:50:35;1.03;;;0.90;;
11078;SDS011;5592;49.234;7.268;2023-02-05T15:56:04;2.23;;;0.90;;
11078;SDS011;5592;49.234;7.268;2023-02-05T15:58:31;0.70;;;0.70;;
11078;SDS011;5592;49.234;7.268;2023-02-05T16:00:57;1.87;;;0.90;;
11078;SDS011;5592;49.234;7.268;2023-02-05T16:03:30;1.23;;;0.90;;
11078;SDS011;5592;49.234;7.268;2023-02-05T16:05:58;3.17;;;1.07;;
11078;SDS011;5592;49.234;7.268;2023-02-05T16:08:24;1.20;;;1.00;;
11078;SDS011;5592;49.234;7.268;2023-02-05T16:10:58;0.97;;;0.90;;
11078;SDS011;5592;49.234;7.268;2023-02-05T16:13:29;2.07;;;1.03;;
11078;SDS011;5592;49.234;7.268;2023-02-05T16:16:08;1.10;;;0.90;;
11078;SDS011;5592;49.234;7.268;2023-02-05T16:18:48;1.00;;;0.80;;
11078;SDS011;5592;49.234;7.268;2023-02-05T16:23:54;6.63;;;1.43;;
11078;SDS011;5592;49.234;7.268;2023-02-05T16:29:03;1.53;;;0.90;;
11078;SDS011;5592;49.234;7.268;2023-02-05T16:31:31;1.60;;;1.30;;
11078;SDS011;5592;49.234;7.268;2023-02-05T16:34:01;4.63;;;1.87;;
11078;SDS011;5592;49.234;7.268;2023-02-05T16:36:29;2.00;;;1.13;;
11078;SDS011;5592;49.234;7.268;2023-02-05T16:38:59;1.70;;;1.30;;
11078;SDS011;5592;49.234;7.268;2023-02-05T16:41:29;1.20;;;1.10;;
11078;SDS011;5592;49.234;7.268;2023-02-05T16:43:58;4.40;;;1.67;;
11078;SDS011;5592;49.234;7.268;2023-02-05T16:46:28;2.20;;;1.57;;
11078;SDS011;5592;49.234;7.268;2023-02-05T16:48:56;4.33;;;1.50;;
11078;SDS011;5592;49.234;7.268;2023-02-05T16:56:37;1.97;;;1.57;;
11078;SDS011;5592;49.234;7.268;2023-02-05T16:59:18;3.00;;;1.33;;
11078;SDS011;5592;49.234;7.268;2023-02-05T17:01:47;3.97;;;1.60;;
11078;SDS011;5592;49.234;7.268;2023-02-05T17:04:19;3.13;;;1.33;;
11078;SDS011;5592;49.234;7.268;2023-02-05T17:06:55;3.73;;;1.30;;
11078;SDS011;5592;49.234;7.268;2023-02-05T17:09:30;1.80;;;1.30;;
11078;SDS011;5592;49.234;7.268;2023-02-05T17:14:52;4.43;;;1.90;;
11078;SDS011;5592;49.234;7.268;2023-02-05T17:17:22;2.40;;;1.80;;
11078;SDS011;5592;49.234;7.268;2023-02-05T17:22:30;2.97;;;1.97;;
11078;SDS011;5592;49.234;7.268;2023-02-05T17:24:56;2.30;;;1.50;;
11078;SDS011;5592;49.234;7.268;2023-02-05T17:27:32;1.23;;;1.13;;
11078;SDS011;5592;49.234;7.268;2023-02-05T17:30:01;4.40;;;1.60;;
11078;SDS011;5592;49.234;7.268;2023-02-05T17:32:28;1.30;;;1.20;;
11078;SDS011;5592;49.234;7.268;2023-02-05T17:34:57;3.27;;;1.60;;